createdAt,value
2023-04-08T00:02:38.553Z,7.90
2023-04-08T00:05:08.067Z,7.80
2023-04-08T00:07:52.171Z,7.80
2023-04-08T00:10:22.897Z,7.80
2023-04-08T00:12:51.448Z,7.80
2023-04-08T00:15:19.830Z,7.90
2023-04-08T00:17:48.156Z,7.90
2023-04-08T00:20:16.538Z,7.90
2023-04-08T00:22:46.752Z,7.90
2023-04-08T00:25:14.987Z,7.90
2023-04-08T00:27:43.172Z,7.90
2023-04-08T00:30:12.024Z,8.00
2023-04-08T00:32:42.709Z,8.00
2023-04-08T00:35:12.942Z,8.00
2023-04-08T00:37:45.004Z,8.10
2023-04-08T00:40:13.546Z,8.10
2023-04-08T00:42:42.052Z,8.40
2023-04-08T00:45:11.585Z,8.10
2023-04-08T00:47:39.992Z,8.20
2023-04-08T00:50:11.803Z,8.10
2023-04-08T00:52:39.961Z,8.10
2023-04-08T00:55:09.798Z,8.10
2023-04-08T00:57:38.056Z,8.10
2023-04-08T01:00:07.068Z,8.00
2023-04-08T01:02:42.264Z,8.00
2023-04-08T01:05:16.807Z,8.00
2023-04-08T01:07:50.445Z,8.00
2023-04-08T01:10:23.323Z,7.90
2023-04-08T01:12:55.124Z,7.90
2023-04-08T01:15:24.954Z,7.80
2023-04-08T01:17:55.579Z,7.80
2023-04-08T01:20:28.419Z,7.60
2023-04-08T01:23:10.540Z,7.80
2023-04-08T01:25:46.781Z,7.90
2023-04-08T01:28:18.933Z,7.80
2023-04-08T01:30:48.649Z,7.80
2023-04-08T01:33:19.406Z,7.80
2023-04-08T01:35:47.993Z,7.80
2023-04-08T01:38:19.304Z,7.80
2023-04-08T01:40:51.938Z,7.90
2023-04-08T01:43:21.365Z,7.90
2023-04-08T01:45:58.324Z,7.80
2023-04-08T01:48:27.085Z,7.80
2023-04-08T01:50:58.984Z,7.80
2023-04-08T01:53:27.238Z,7.80
2023-04-08T01:56:02.808Z,7.80
2023-04-08T01:58:38.406Z,7.80
2023-04-08T02:01:12.604Z,7.90
2023-04-08T02:03:45.564Z,7.90
2023-04-08T02:06:15.465Z,7.80
2023-04-08T02:08:43.673Z,7.80
2023-04-08T02:11:13.375Z,7.80
2023-04-08T02:13:41.730Z,7.80
2023-04-08T02:16:16.959Z,7.80
2023-04-08T02:18:49.261Z,7.80
2023-04-08T02:21:19.333Z,7.80
2023-04-08T02:23:52.230Z,7.80
2023-04-08T02:26:25.647Z,7.90
2023-04-08T02:28:56.179Z,7.90
2023-04-08T02:31:25.961Z,7.90
2023-04-08T02:33:57.702Z,7.90
2023-04-08T02:36:27.249Z,8.00
2023-04-08T02:38:55.423Z,8.00
2023-04-08T02:41:25.096Z,8.10
2023-04-08T02:43:55.530Z,8.10
2023-04-08T02:46:23.872Z,8.30
2023-04-08T02:48:55.097Z,8.10
2023-04-08T02:51:23.430Z,8.10
2023-04-08T02:53:51.637Z,8.10
2023-04-08T02:56:19.865Z,8.10
2023-04-08T02:58:52.303Z,8.10
2023-04-08T03:01:20.638Z,8.10
2023-04-08T03:03:49.064Z,8.10
2023-04-08T03:06:20.156Z,8.20
2023-04-08T03:08:48.671Z,8.50
2023-04-08T03:11:17.141Z,8.20
2023-04-08T03:13:46.667Z,8.20
2023-04-08T03:16:16.470Z,8.20
2023-04-08T03:18:44.691Z,8.30
2023-04-08T03:21:13.148Z,8.20
2023-04-08T03:23:41.345Z,8.20
2023-04-08T03:26:09.635Z,8.20
2023-04-08T03:28:37.816Z,8.20
2023-04-08T03:31:06.548Z,8.20
2023-04-08T03:33:36.067Z,8.10
2023-04-08T03:36:04.857Z,8.10
2023-04-08T03:38:33.022Z,8.10
2023-04-08T03:41:03.370Z,8.10
2023-04-08T03:43:32.775Z,8.10
2023-04-08T03:46:03.411Z,8.10
2023-04-08T03:48:35.353Z,8.10
2023-04-08T03:51:05.988Z,8.10
2023-04-08T03:53:34.146Z,8.20
2023-04-08T03:56:04.705Z,8.40
2023-04-08T03:58:35.266Z,8.10
2023-04-08T04:01:03.457Z,8.10
2023-04-08T04:03:31.719Z,8.10
2023-04-08T04:06:01.508Z,8.10
2023-04-08T04:08:29.627Z,8.10
2023-04-08T04:10:57.746Z,8.10
2023-04-08T04:13:26.144Z,8.20
2023-04-08T04:15:54.372Z,8.10
2023-04-08T04:18:22.573Z,8.10
2023-04-08T04:20:50.866Z,8.20
2023-04-08T04:23:20.922Z,8.20
2023-04-08T04:25:49.035Z,8.10
2023-04-08T04:28:17.371Z,8.10
2023-04-08T04:30:45.752Z,8.10
2023-04-08T04:33:13.889Z,8.10
2023-04-08T04:35:42.350Z,8.10
2023-04-08T04:38:12.533Z,8.20
2023-04-08T04:40:45.111Z,8.20
2023-04-08T04:43:13.354Z,8.10
2023-04-08T04:45:41.872Z,8.30
2023-04-08T04:48:09.983Z,8.20
2023-04-08T04:50:38.143Z,8.20
2023-04-08T04:53:06.411Z,8.30
2023-04-08T04:55:34.566Z,8.30
2023-04-08T04:58:04.239Z,8.40
2023-04-08T05:00:32.387Z,8.40
2023-04-08T05:03:00.673Z,8.50
2023-04-08T05:05:28.969Z,8.40
2023-04-08T05:07:57.237Z,8.50
2023-04-08T05:10:25.369Z,8.50
2023-04-08T05:12:53.615Z,8.50
2023-04-08T05:15:23.451Z,8.50
2023-04-08T05:17:51.634Z,8.60
2023-04-08T05:20:19.912Z,8.50
2023-04-08T05:22:48.032Z,8.60
2023-04-08T05:25:16.364Z,8.60
2023-04-08T05:27:44.543Z,8.60
2023-04-08T05:30:15.122Z,8.60
2023-04-08T05:32:44.666Z,8.60
2023-04-08T05:35:15.145Z,8.70
2023-04-08T05:37:43.293Z,8.70
2023-04-08T05:40:12.076Z,8.80
2023-04-08T05:42:42.376Z,8.80
2023-04-08T05:45:11.659Z,8.80
2023-04-08T05:47:42.301Z,8.80
2023-04-08T05:50:12.885Z,9.00
2023-04-08T05:52:44.657Z,8.90
2023-04-08T05:55:12.980Z,8.90
2023-04-08T05:57:43.296Z,9.00
2023-04-08T06:00:12.490Z,9.10
2023-04-08T06:02:40.965Z,9.20
2023-04-08T06:05:11.495Z,9.20
2023-04-08T06:07:41.830Z,9.30
2023-04-08T06:10:10.532Z,9.20
2023-04-08T06:12:39.667Z,9.30
2023-04-08T06:15:11.136Z,9.30
2023-04-08T06:17:39.844Z,9.40
2023-04-08T06:20:09.310Z,9.40
2023-04-08T06:22:39.049Z,9.50
2023-04-08T06:25:08.097Z,9.40
2023-04-08T06:27:39.613Z,9.50
2023-04-08T06:30:09.443Z,9.50
2023-04-08T06:32:37.654Z,9.50
2023-04-08T06:35:07.492Z,9.60
2023-04-08T06:38:00.636Z,9.70
2023-04-08T06:40:29.184Z,9.70
2023-04-08T06:42:57.484Z,9.90
2023-04-08T06:45:39.360Z,9.90
2023-04-08T06:48:09.556Z,10.00
2023-04-08T06:50:40.581Z,10.10
2023-04-08T06:53:17.019Z,10.10
2023-04-08T06:55:48.518Z,10.20
2023-04-08T06:58:34.188Z,10.40
2023-04-08T07:01:03.422Z,10.20
2023-04-08T07:03:31.719Z,10.20
2023-04-08T07:05:59.908Z,10.30
2023-04-08T07:08:32.090Z,10.30
2023-04-08T07:11:00.317Z,10.30
2023-04-08T07:13:29.509Z,10.40
2023-04-08T07:15:57.854Z,10.40
2023-04-08T07:18:26.557Z,10.40
2023-04-08T07:20:55.077Z,10.40
2023-04-08T07:23:23.813Z,10.40
2023-04-08T07:25:53.991Z,10.50
2023-04-08T07:28:22.338Z,10.60
2023-04-08T07:30:50.677Z,10.70
2023-04-08T07:33:19.902Z,10.90
2023-04-08T07:35:50.102Z,11.10
2023-04-08T07:38:22.930Z,11.20
2023-04-08T07:41:01.457Z,11.30
2023-04-08T07:43:34.679Z,11.30
2023-04-08T07:46:03.865Z,11.30
2023-04-08T07:48:36.552Z,11.40
2023-04-08T07:51:09.428Z,11.40
2023-04-08T07:53:39.644Z,11.30
2023-04-08T07:56:13.740Z,11.20
2023-04-08T07:58:44.453Z,11.20
2023-04-08T08:01:21.287Z,11.30
2023-04-08T08:03:50.172Z,11.30
2023-04-08T08:06:18.954Z,11.40
2023-04-08T08:08:47.836Z,11.60
2023-04-08T08:11:20.470Z,11.70
2023-04-08T08:13:50.503Z,11.70
2023-04-08T08:16:19.102Z,11.70
2023-04-08T08:18:47.786Z,11.80
2023-04-08T08:21:16.138Z,11.90
2023-04-08T08:23:44.658Z,12.10
2023-04-08T08:26:12.859Z,12.20
2023-04-08T08:28:43.252Z,12.30
2023-04-08T08:31:13.029Z,12.40
2023-04-08T08:33:42.554Z,12.50
2023-04-08T08:36:11.119Z,12.50
2023-04-08T08:38:42.536Z,12.60
2023-04-08T08:41:10.924Z,12.60
2023-04-08T08:43:40.085Z,12.70
2023-04-08T08:46:13.043Z,12.70
2023-04-08T08:48:41.600Z,12.70
2023-04-08T08:51:10.875Z,12.80
2023-04-08T08:53:39.621Z,12.80
2023-04-08T08:56:17.347Z,12.70
2023-04-08T08:58:47.835Z,12.60
2023-04-08T09:01:46.944Z,12.50
2023-04-08T09:04:21.733Z,12.50
2023-04-08T09:07:13.461Z,12.50
2023-04-08T09:09:58.782Z,12.60
2023-04-08T09:12:38.632Z,12.70
2023-04-08T09:15:17.254Z,12.80
2023-04-08T09:18:08.536Z,12.70
2023-04-08T09:21:00.723Z,12.70
2023-04-08T09:23:40.685Z,12.70
2023-04-08T09:26:12.898Z,12.80
2023-04-08T09:28:42.341Z,12.90
2023-04-08T09:31:30.073Z,12.90
2023-04-08T09:34:15.924Z,12.90
2023-04-08T09:36:56.915Z,12.90
2023-04-08T09:39:42.705Z,12.80
2023-04-08T09:42:20.477Z,12.70
2023-04-08T09:45:01.251Z,12.80
2023-04-08T09:47:44.630Z,12.90
2023-04-08T09:50:38.626Z,13.00
2023-04-08T09:53:33.233Z,13.00
2023-04-08T09:56:11.080Z,13.10
2023-04-08T09:58:44.434Z,13.20
2023-04-08T10:01:15.972Z,13.30
2023-04-08T10:03:51.505Z,13.40
2023-04-08T10:06:23.460Z,13.40
2023-04-08T10:08:52.210Z,13.40
2023-04-08T10:11:20.764Z,13.40
2023-04-08T10:13:49.417Z,13.30
2023-04-08T10:16:23.050Z,13.30
2023-04-08T10:18:58.350Z,13.30
2023-04-08T10:21:43.546Z,13.30
2023-04-08T10:24:13.251Z,13.30
2023-04-08T10:26:44.250Z,13.40
2023-04-08T10:29:36.981Z,13.50
2023-04-08T10:32:05.511Z,13.60
2023-04-08T10:37:25.506Z,13.50
2023-04-08T10:40:03.933Z,13.50
2023-04-08T10:42:36.403Z,13.40
2023-04-08T10:45:27.260Z,13.30
2023-04-08T10:48:23.213Z,13.20
2023-04-08T10:51:23.633Z,13.40
2023-04-08T10:54:09.972Z,13.50
2023-04-08T10:56:49.936Z,13.70
2023-04-08T10:59:32.281Z,13.70
2023-04-08T11:02:07.174Z,13.70
2023-04-08T11:04:51.074Z,13.50
2023-04-08T11:07:25.265Z,13.50
2023-04-08T11:10:01.540Z,13.40
2023-04-08T11:12:45.604Z,13.40
2023-04-08T11:15:31.755Z,13.30
2023-04-08T11:18:49.488Z,13.30
2023-04-08T11:21:47.178Z,13.10
2023-04-08T11:24:26.941Z,13.00
2023-04-08T11:27:12.855Z,12.80
2023-04-08T11:29:51.034Z,12.80
2023-04-08T11:32:20.084Z,12.70
2023-04-08T11:34:49.009Z,12.50
2023-04-08T11:37:17.404Z,12.50
2023-04-08T11:39:46.105Z,12.50
2023-04-08T11:42:29.200Z,12.50
2023-04-08T11:45:00.338Z,12.60
2023-04-08T11:47:34.447Z,12.70
2023-04-08T11:50:03.029Z,12.80
2023-04-08T11:52:44.065Z,12.80
2023-04-08T11:55:12.680Z,13.00
2023-04-08T11:57:42.221Z,13.20
2023-04-08T12:00:11.394Z,13.40
2023-04-08T12:02:39.630Z,13.40
2023-04-08T12:05:08.816Z,13.40
2023-04-08T12:07:37.583Z,13.30
2023-04-08T12:10:06.526Z,13.30
2023-04-08T12:12:34.816Z,13.40
2023-04-08T12:15:04.664Z,13.40
2023-04-08T12:17:32.965Z,13.40
2023-04-08T12:20:01.580Z,13.30
2023-04-08T12:22:32.469Z,13.20
2023-04-08T12:25:02.975Z,13.10
2023-04-08T12:27:33.429Z,13.10
2023-04-08T12:30:02.227Z,13.10
2023-04-08T12:32:32.196Z,13.10
2023-04-08T12:35:02.903Z,13.10
2023-04-08T12:37:36.481Z,13.00
2023-04-08T12:40:11.215Z,13.00
2023-04-08T12:42:39.667Z,12.80
2023-04-08T12:45:10.984Z,12.90
2023-04-08T12:47:46.843Z,13.10
2023-04-08T12:50:18.166Z,13.40
2023-04-08T12:52:46.713Z,13.40
2023-04-08T12:55:15.003Z,13.70
2023-04-08T12:57:43.257Z,13.90
2023-04-08T13:00:12.584Z,13.90
2023-04-08T13:02:44.607Z,14.00
2023-04-08T13:05:13.489Z,14.10
2023-04-08T13:07:48.179Z,14.20
2023-04-08T13:10:20.645Z,14.10
2023-04-08T13:12:56.502Z,14.10
2023-04-08T13:15:26.858Z,14.20
2023-04-08T13:17:57.868Z,14.10
2023-04-08T13:20:28.419Z,14.10
2023-04-08T13:22:56.882Z,14.00
2023-04-08T13:25:25.387Z,13.80
2023-04-08T13:27:56.314Z,13.60
2023-04-08T13:30:27.299Z,13.40
2023-04-08T13:32:58.967Z,13.30
2023-04-08T13:35:32.017Z,13.20
2023-04-08T13:38:07.525Z,13.20
2023-04-08T13:40:39.029Z,13.20
2023-04-08T13:43:09.288Z,13.20
2023-04-08T13:45:39.957Z,13.30
2023-04-08T13:48:10.010Z,13.30
2023-04-08T13:50:38.994Z,13.30
2023-04-08T13:53:07.625Z,13.20
2023-04-08T13:55:35.768Z,13.20
2023-04-08T13:58:08.803Z,13.10
2023-04-08T14:00:42.434Z,13.10
2023-04-08T14:03:12.148Z,13.00
2023-04-08T14:05:40.583Z,12.90
2023-04-08T14:08:08.874Z,12.80
2023-04-08T14:10:37.320Z,12.60
2023-04-08T14:13:05.666Z,12.50
2023-04-08T14:15:33.913Z,12.40
2023-04-08T14:18:02.449Z,12.30
2023-04-08T14:20:32.252Z,12.30
2023-04-08T14:23:00.718Z,12.30
2023-04-08T14:25:29.223Z,12.20
2023-04-08T14:27:58.857Z,12.30
2023-04-08T14:30:27.669Z,12.40
2023-04-08T14:32:56.679Z,12.40
2023-04-08T14:35:24.943Z,12.50
2023-04-08T14:37:54.910Z,12.50
2023-04-08T14:40:23.236Z,12.50
2023-04-08T14:42:51.714Z,12.40
2023-04-08T14:45:22.246Z,12.30
2023-04-08T14:47:50.660Z,12.20
2023-04-08T14:50:19.445Z,12.00
2023-04-08T14:52:49.008Z,11.90
2023-04-08T14:55:18.702Z,11.80
2023-04-08T14:57:47.088Z,11.80
2023-04-08T15:00:16.012Z,11.80
2023-04-08T15:02:44.434Z,11.80
2023-04-08T15:05:12.661Z,11.70
2023-04-08T15:07:41.808Z,11.70
2023-04-08T15:10:10.870Z,11.60
2023-04-08T15:12:40.932Z,11.60
2023-04-08T15:15:10.496Z,11.60
2023-04-08T15:17:38.957Z,11.60
2023-04-08T15:20:11.259Z,11.60
2023-04-08T15:22:39.664Z,11.60
2023-04-08T15:25:08.649Z,11.60
2023-04-08T15:27:40.913Z,11.60
2023-04-08T15:30:12.219Z,11.60
2023-04-08T15:32:41.701Z,11.60
2023-04-08T15:35:29.946Z,11.60
2023-04-08T15:37:58.281Z,11.50
2023-04-08T15:40:27.062Z,11.80
2023-04-08T15:42:58.262Z,11.90
2023-04-08T15:45:26.715Z,11.90
2023-04-08T15:48:04.956Z,11.90
2023-04-08T15:50:33.394Z,11.80
2023-04-08T15:53:01.775Z,11.80
2023-04-08T15:55:30.385Z,11.80
2023-04-08T15:58:00.232Z,11.70
2023-04-08T16:00:28.942Z,11.70
2023-04-08T16:02:58.050Z,11.60
2023-04-08T16:05:28.303Z,11.50
2023-04-08T16:07:58.167Z,11.40
2023-04-08T16:10:26.484Z,11.30
2023-04-08T16:12:55.088Z,11.20
2023-04-08T16:15:24.769Z,11.20
2023-04-08T16:17:53.608Z,11.10
2023-04-08T16:20:22.475Z,11.10
2023-04-08T16:22:52.891Z,11.00
2023-04-08T16:25:27.849Z,11.00
2023-04-08T16:27:56.659Z,11.00
2023-04-08T16:30:33.927Z,10.90
2023-04-08T16:33:24.013Z,11.00
2023-04-08T16:35:55.428Z,10.90
2023-04-08T16:38:24.076Z,10.80
2023-04-08T16:40:52.538Z,10.80
2023-04-08T16:43:21.170Z,10.80
2023-04-08T16:45:54.324Z,10.70
2023-04-08T16:48:23.183Z,10.70
2023-04-08T16:50:51.461Z,10.70
2023-04-08T16:53:19.862Z,10.70
2023-04-08T16:55:48.112Z,10.70
2023-04-08T16:58:25.750Z,10.70
2023-04-08T17:00:55.666Z,10.70
2023-04-08T17:03:27.400Z,10.60
2023-04-08T17:05:55.661Z,10.60
2023-04-08T17:08:27.033Z,10.60
2023-04-08T17:10:55.280Z,10.60
2023-04-08T17:13:23.862Z,10.70
2023-04-08T17:15:52.020Z,10.70
2023-04-08T17:18:23.888Z,10.60
2023-04-08T17:20:54.418Z,10.70
2023-04-08T17:23:22.628Z,10.60
2023-04-08T17:25:50.795Z,10.60
2023-04-08T17:28:19.043Z,10.60
2023-04-08T17:30:47.582Z,10.60
2023-04-08T17:33:15.944Z,10.60
2023-04-08T17:35:55.396Z,10.50
2023-04-08T17:38:23.662Z,10.50
2023-04-08T17:40:51.892Z,10.50
2023-04-08T17:43:20.194Z,10.40
2023-04-08T17:45:51.591Z,10.30
2023-04-08T17:48:19.966Z,10.30
2023-04-08T17:50:48.063Z,10.10
2023-04-08T17:53:38.151Z,10.00
2023-04-08T17:56:07.193Z,9.90
2023-04-08T17:58:35.581Z,9.90
2023-04-08T18:01:03.850Z,9.80
2023-04-08T18:03:37.381Z,9.70
2023-04-08T18:06:09.153Z,9.70
2023-04-08T18:08:38.833Z,9.70
2023-04-08T18:15:06.730Z,9.80
2023-04-08T18:17:36.180Z,9.70
2023-04-08T18:20:04.635Z,9.70
2023-04-08T18:22:36.006Z,9.70
2023-04-08T18:25:06.577Z,9.70
2023-04-08T18:27:34.762Z,9.70
2023-04-08T18:30:03.262Z,9.70
2023-04-08T18:32:31.561Z,9.70
2023-04-08T18:35:00.081Z,9.70
2023-04-08T18:37:28.365Z,9.70
2023-04-08T18:39:56.990Z,9.70
2023-04-08T18:42:26.829Z,9.70
2023-04-08T18:44:55.411Z,9.70
2023-04-08T18:47:23.679Z,9.70
2023-04-08T18:49:52.194Z,9.70
2023-04-08T18:52:20.890Z,9.70
2023-04-08T18:54:49.210Z,9.70
2023-04-08T18:57:17.543Z,9.70
2023-04-08T18:59:49.425Z,9.70
2023-04-08T19:02:17.650Z,9.70
2023-04-08T19:04:48.565Z,9.70
2023-04-08T19:07:17.896Z,9.70
2023-04-08T19:09:46.094Z,9.60
2023-04-08T19:12:14.300Z,9.60
2023-04-08T19:14:43.094Z,9.60
2023-04-08T19:17:12.844Z,9.50
2023-04-08T19:19:41.334Z,9.50
2023-04-08T19:22:11.571Z,9.50
2023-04-08T19:24:39.723Z,9.40
2023-04-08T19:27:07.940Z,9.30
2023-04-08T19:29:36.403Z,9.20
2023-04-08T19:32:04.645Z,9.20
2023-04-08T19:34:38.281Z,9.10
2023-04-08T19:37:06.601Z,9.00
2023-04-08T19:39:34.898Z,8.90
2023-04-08T19:42:03.218Z,8.80
2023-04-08T19:44:33.952Z,8.70
2023-04-08T19:47:02.694Z,8.60
2023-04-08T19:49:34.685Z,8.50
2023-04-08T19:52:03.015Z,8.70
2023-04-08T19:54:38.478Z,8.40
2023-04-08T19:57:10.757Z,8.30
2023-04-08T19:59:39.365Z,8.30
2023-04-08T20:02:08.089Z,8.20
2023-04-08T20:04:46.004Z,8.10
2023-04-08T20:07:14.504Z,8.10
2023-04-08T20:09:42.774Z,8.00
2023-04-08T20:12:10.917Z,7.90
2023-04-08T20:14:44.037Z,7.90
2023-04-08T20:17:15.545Z,7.80
2023-04-08T20:19:45.290Z,7.70
2023-04-08T20:22:13.455Z,7.70
2023-04-08T20:24:42.208Z,7.70
2023-04-08T20:27:12.726Z,7.60
2023-04-08T20:29:41.910Z,7.60
2023-04-08T20:32:10.399Z,7.50
2023-04-08T20:34:38.658Z,7.50
2023-04-08T20:37:08.169Z,7.50
2023-04-08T20:39:36.495Z,7.40
2023-04-08T20:42:09.541Z,7.40
2023-04-08T20:44:37.960Z,7.50
2023-04-08T20:47:11.261Z,7.30
2023-04-08T20:49:42.898Z,7.20
2023-04-08T20:52:12.538Z,7.20
2023-04-08T20:54:43.184Z,7.20
2023-04-08T20:57:11.351Z,7.10
2023-04-08T20:59:39.505Z,7.10
2023-04-08T21:02:08.341Z,7.00
2023-04-08T21:04:37.600Z,7.00
2023-04-08T21:07:05.812Z,7.10
2023-04-08T21:09:35.602Z,7.00
2023-04-08T21:12:06.253Z,6.80
2023-04-08T21:14:34.882Z,6.80
2023-04-08T21:17:03.083Z,6.70
2023-04-08T21:19:33.383Z,6.70
2023-04-08T21:22:01.595Z,6.60
2023-04-08T21:24:29.733Z,6.50
2023-04-08T21:27:02.718Z,6.50
2023-04-08T21:29:31.018Z,6.70
2023-04-08T21:31:59.230Z,6.50
2023-04-08T21:34:27.423Z,6.40
2023-04-08T21:36:55.854Z,6.40
2023-04-08T21:39:23.989Z,6.50
2023-04-08T21:41:52.275Z,6.30
2023-04-08T21:44:22.357Z,6.30
2023-04-08T21:46:50.667Z,6.50
2023-04-08T21:49:18.794Z,6.20
2023-04-08T21:51:49.183Z,6.20
2023-04-08T21:54:17.382Z,6.10
2023-04-08T21:56:47.857Z,6.10
2023-04-08T21:59:19.147Z,6.00
2023-04-08T22:01:51.409Z,6.00
2023-04-08T22:04:20.518Z,5.90
2023-04-08T22:06:49.342Z,5.90
2023-04-08T22:09:17.635Z,5.80
2023-04-08T22:11:47.837Z,5.70
2023-04-08T22:14:17.365Z,6.00
2023-04-08T22:16:45.846Z,5.70
2023-04-08T22:19:15.527Z,5.60
2023-04-08T22:21:43.814Z,5.60
2023-04-08T22:24:14.101Z,5.60
2023-04-08T22:26:42.268Z,5.80
2023-04-08T22:29:10.600Z,5.50
2023-04-08T22:31:38.777Z,5.50
2023-04-08T22:34:09.930Z,5.50
2023-04-08T22:36:41.607Z,5.40
2023-04-08T22:39:09.874Z,5.70
2023-04-08T22:41:40.393Z,5.40
2023-04-08T22:44:08.483Z,5.30
2023-04-08T22:46:36.836Z,5.30
2023-04-08T22:49:07.272Z,5.30
2023-04-08T22:51:35.466Z,5.30
2023-04-08T22:54:05.287Z,5.30
2023-04-08T22:56:33.398Z,5.30
2023-04-08T22:59:01.512Z,5.30
2023-04-08T23:01:29.739Z,5.20
2023-04-08T23:03:57.928Z,5.40
2023-04-08T23:06:27.348Z,5.10
2023-04-08T23:08:55.418Z,5.10
2023-04-08T23:11:27.188Z,5.00
2023-04-08T23:13:58.029Z,4.90
2023-04-08T23:16:26.273Z,4.90
2023-04-08T23:18:57.389Z,4.80
2023-04-08T23:21:26.095Z,4.80
2023-04-08T23:23:54.173Z,4.70
2023-04-08T23:26:22.781Z,4.70
2023-04-08T23:28:54.804Z,4.60
2023-04-08T23:31:25.262Z,4.80
2023-04-08T23:33:55.584Z,4.60
2023-04-08T23:36:23.735Z,4.50
2023-04-08T23:38:52.069Z,4.50
2023-04-08T23:41:20.652Z,4.70
2023-04-08T23:43:48.704Z,4.50
2023-04-08T23:46:18.267Z,4.50
2023-04-08T23:48:46.410Z,4.40
2023-04-08T23:51:14.601Z,4.50
2023-04-08T23:53:42.711Z,4.40
2023-04-08T23:56:13.245Z,4.40
2023-04-08T23:58:41.366Z,4.40
